sensor_id;sensor_type;location;lat;lon;timestamp;temperature;humidity
9393;DHT22;4736;52.508;13.422;2023-08-17T00:01:37;20.50;69.90
9393;DHT22;4736;52.508;13.422;2023-08-17T00:04:40;20.50;69.90
9393;DHT22;4736;52.508;13.422;2023-08-17T00:07:44;20.40;70.00
9393;DHT22;4736;52.508;13.422;2023-08-17T00:10:47;20.30;70.20
9393;DHT22;4736;52.508;13.422;2023-08-17T00:13:50;20.30;70.20
9393;DHT22;4736;52.508;13.422;2023-08-17T00:16:54;20.30;70.20
9393;DHT22;4736;52.508;13.422;2023-08-17T00:19:58;20.30;70.40
9393;DHT22;4736;52.508;13.422;2023-08-17T00:23:01;20.20;70.40
9393;DHT22;4736;52.508;13.422;2023-08-17T00:26:04;20.20;70.50
9393;DHT22;4736;52.508;13.422;2023-08-17T00:29:08;20.10;70.50
9393;DHT22;4736;52.508;13.422;2023-08-17T00:32:13;20.10;70.70
9393;DHT22;4736;52.508;13.422;2023-08-17T00:35:16;20.10;70.80
9393;DHT22;4736;52.508;13.422;2023-08-17T00:38:19;20.00;70.80
9393;DHT22;4736;52.508;13.422;2023-08-17T00:41:23;20.00;71.00
9393;DHT22;4736;52.508;13.422;2023-08-17T00:44:26;20.00;71.10
9393;DHT22;4736;52.508;13.422;2023-08-17T00:47:31;20.00;71.00
9393;DHT22;4736;52.508;13.422;2023-08-17T00:50:35;19.90;71.20
9393;DHT22;4736;52.508;13.422;2023-08-17T00:53:39;19.90;71.20
9393;DHT22;4736;52.508;13.422;2023-08-17T00:56:42;19.90;71.30
9393;DHT22;4736;52.508;13.422;2023-08-17T00:59:45;19.80;71.30
9393;DHT22;4736;52.508;13.422;2023-08-17T01:03:07;19.80;71.20
9393;DHT22;4736;52.508;13.422;2023-08-17T01:06:10;19.70;71.20
9393;DHT22;4736;52.508;13.422;2023-08-17T01:09:14;19.70;71.20
9393;DHT22;4736;52.508;13.422;2023-08-17T01:12:21;19.70;71.20
9393;DHT22;4736;52.508;13.422;2023-08-17T01:15:33;19.70;71.20
9393;DHT22;4736;52.508;13.422;2023-08-17T01:18:40;19.70;71.10
9393;DHT22;4736;52.508;13.422;2023-08-17T01:21:50;19.70;71.20
9393;DHT22;4736;52.508;13.422;2023-08-17T01:24:56;19.70;71.10
9393;DHT22;4736;52.508;13.422;2023-08-17T01:27:59;19.70;71.10
9393;DHT22;4736;52.508;13.422;2023-08-17T01:31:08;19.60;71.20
9393;DHT22;4736;52.508;13.422;2023-08-17T01:34:18;19.50;71.20
9393;DHT22;4736;52.508;13.422;2023-08-17T01:37:22;19.50;71.40
9393;DHT22;4736;52.508;13.422;2023-08-17T01:40:31;19.50;71.40
9393;DHT22;4736;52.508;13.422;2023-08-17T01:43:35;19.50;71.40
9393;DHT22;4736;52.508;13.422;2023-08-17T01:46:39;19.50;71.40
9393;DHT22;4736;52.508;13.422;2023-08-17T01:49:45;19.50;71.50
9393;DHT22;4736;52.508;13.422;2023-08-17T01:52:48;19.40;71.50
9393;DHT22;4736;52.508;13.422;2023-08-17T01:55:53;19.40;71.70
9393;DHT22;4736;52.508;13.422;2023-08-17T01:58:57;19.40;71.80
9393;DHT22;4736;52.508;13.422;2023-08-17T02:02:00;19.30;71.70
9393;DHT22;4736;52.508;13.422;2023-08-17T02:05:03;19.30;71.80
9393;DHT22;4736;52.508;13.422;2023-08-17T02:08:07;19.30;71.80
9393;DHT22;4736;52.508;13.422;2023-08-17T02:11:11;19.30;71.90
9393;DHT22;4736;52.508;13.422;2023-08-17T02:14:14;19.30;72.10
9393;DHT22;4736;52.508;13.422;2023-08-17T02:17:18;19.30;72.10
9393;DHT22;4736;52.508;13.422;2023-08-17T02:20:23;19.20;72.10
9393;DHT22;4736;52.508;13.422;2023-08-17T02:23:26;19.20;72.10
9393;DHT22;4736;52.508;13.422;2023-08-17T02:26:30;19.20;72.10
9393;DHT22;4736;52.508;13.422;2023-08-17T02:29:35;19.20;72.10
9393;DHT22;4736;52.508;13.422;2023-08-17T02:32:39;19.10;72.20
9393;DHT22;4736;52.508;13.422;2023-08-17T02:35:42;19.10;72.40
9393;DHT22;4736;52.508;13.422;2023-08-17T02:38:45;19.10;72.50
9393;DHT22;4736;52.508;13.422;2023-08-17T02:41:50;19.10;72.20
9393;DHT22;4736;52.508;13.422;2023-08-17T02:44:53;19.20;72.00
9393;DHT22;4736;52.508;13.422;2023-08-17T02:47:56;19.10;72.10
9393;DHT22;4736;52.508;13.422;2023-08-17T02:51:01;19.10;72.20
9393;DHT22;4736;52.508;13.422;2023-08-17T02:54:04;19.10;72.20
9393;DHT22;4736;52.508;13.422;2023-08-17T02:57:09;19.00;72.20
9393;DHT22;4736;52.508;13.422;2023-08-17T03:00:13;19.00;72.20
9393;DHT22;4736;52.508;13.422;2023-08-17T03:03:17;18.90;72.20
9393;DHT22;4736;52.508;13.422;2023-08-17T03:06:20;18.90;72.20
9393;DHT22;4736;52.508;13.422;2023-08-17T03:09:23;18.90;72.10
9393;DHT22;4736;52.508;13.422;2023-08-17T03:12:28;19.00;71.90
9393;DHT22;4736;52.508;13.422;2023-08-17T03:15:31;19.00;71.70
9393;DHT22;4736;52.508;13.422;2023-08-17T03:18:36;19.00;71.70
9393;DHT22;4736;52.508;13.422;2023-08-17T03:21:40;18.90;71.80
9393;DHT22;4736;52.508;13.422;2023-08-17T03:24:44;18.90;71.70
9393;DHT22;4736;52.508;13.422;2023-08-17T03:27:48;18.90;71.70
9393;DHT22;4736;52.508;13.422;2023-08-17T03:30:54;18.90;71.60
9393;DHT22;4736;52.508;13.422;2023-08-17T03:33:58;18.90;71.30
9393;DHT22;4736;52.508;13.422;2023-08-17T03:37:03;18.90;71.20
9393;DHT22;4736;52.508;13.422;2023-08-17T03:40:07;18.90;71.10
9393;DHT22;4736;52.508;13.422;2023-08-17T03:43:11;18.90;71.20
9393;DHT22;4736;52.508;13.422;2023-08-17T03:46:15;18.80;71.20
9393;DHT22;4736;52.508;13.422;2023-08-17T03:49:18;18.80;71.10
9393;DHT22;4736;52.508;13.422;2023-08-17T03:52:21;18.80;70.90
9393;DHT22;4736;52.508;13.422;2023-08-17T03:55:24;18.90;70.70
9393;DHT22;4736;52.508;13.422;2023-08-17T03:58:29;18.80;70.50
9393;DHT22;4736;52.508;13.422;2023-08-17T04:01:36;18.80;70.50
9393;DHT22;4736;52.508;13.422;2023-08-17T04:04:40;18.90;70.40
9393;DHT22;4736;52.508;13.422;2023-08-17T04:07:44;18.90;70.20
9393;DHT22;4736;52.508;13.422;2023-08-17T04:10:49;18.90;70.30
9393;DHT22;4736;52.508;13.422;2023-08-17T04:13:53;18.90;70.30
9393;DHT22;4736;52.508;13.422;2023-08-17T04:16:56;18.80;70.00
9393;DHT22;4736;52.508;13.422;2023-08-17T04:20:00;18.90;69.80
9393;DHT22;4736;52.508;13.422;2023-08-17T04:23:03;18.90;69.70
9393;DHT22;4736;52.508;13.422;2023-08-17T04:26:06;19.00;69.60
9393;DHT22;4736;52.508;13.422;2023-08-17T04:29:11;18.90;69.70
9393;DHT22;4736;52.508;13.422;2023-08-17T04:32:15;19.00;69.70
9393;DHT22;4736;52.508;13.422;2023-08-17T04:35:18;19.00;69.60
9393;DHT22;4736;52.508;13.422;2023-08-17T04:38:21;19.00;69.10
9393;DHT22;4736;52.508;13.422;2023-08-17T04:41:24;19.10;69.00
9393;DHT22;4736;52.508;13.422;2023-08-17T04:44:29;19.10;68.70
9393;DHT22;4736;52.508;13.422;2023-08-17T04:47:32;19.10;68.70
9393;DHT22;4736;52.508;13.422;2023-08-17T04:50:35;19.20;68.60
9393;DHT22;4736;52.508;13.422;2023-08-17T04:53:38;19.20;68.20
9393;DHT22;4736;52.508;13.422;2023-08-17T04:56:42;19.20;68.40
9393;DHT22;4736;52.508;13.422;2023-08-17T04:59:46;19.30;68.20
9393;DHT22;4736;52.508;13.422;2023-08-17T05:02:49;19.40;67.90
9393;DHT22;4736;52.508;13.422;2023-08-17T05:05:53;19.40;67.70
9393;DHT22;4736;52.508;13.422;2023-08-17T05:08:56;19.50;67.60
9393;DHT22;4736;52.508;13.422;2023-08-17T05:12:00;19.50;67.30
9393;DHT22;4736;52.508;13.422;2023-08-17T05:15:05;19.50;67.40
9393;DHT22;4736;52.508;13.422;2023-08-17T05:18:12;19.60;67.10
9393;DHT22;4736;52.508;13.422;2023-08-17T05:21:15;19.70;67.00
9393;DHT22;4736;52.508;13.422;2023-08-17T05:24:18;19.70;66.90
9393;DHT22;4736;52.508;13.422;2023-08-17T05:27:22;19.70;66.80
9393;DHT22;4736;52.508;13.422;2023-08-17T05:30:27;19.80;66.90
9393;DHT22;4736;52.508;13.422;2023-08-17T05:33:30;19.90;66.50
9393;DHT22;4736;52.508;13.422;2023-08-17T05:36:33;19.90;66.60
9393;DHT22;4736;52.508;13.422;2023-08-17T05:39:36;20.00;66.10
9393;DHT22;4736;52.508;13.422;2023-08-17T05:42:39;20.10;66.10
9393;DHT22;4736;52.508;13.422;2023-08-17T05:45:44;20.10;66.40
9393;DHT22;4736;52.508;13.422;2023-08-17T05:48:47;20.10;65.80
9393;DHT22;4736;52.508;13.422;2023-08-17T05:51:50;20.10;65.80
9393;DHT22;4736;52.508;13.422;2023-08-17T05:54:54;20.00;65.60
9393;DHT22;4736;52.508;13.422;2023-08-17T05:57:57;20.00;66.00
9393;DHT22;4736;52.508;13.422;2023-08-17T06:01:06;20.10;65.80
9393;DHT22;4736;52.508;13.422;2023-08-17T06:04:10;20.30;66.00
9393;DHT22;4736;52.508;13.422;2023-08-17T06:07:13;20.50;66.00
9393;DHT22;4736;52.508;13.422;2023-08-17T06:10:16;20.50;65.80
9393;DHT22;4736;52.508;13.422;2023-08-17T06:13:22;20.50;65.80
9393;DHT22;4736;52.508;13.422;2023-08-17T06:16:27;20.40;66.10
9393;DHT22;4736;52.508;13.422;2023-08-17T06:19:30;20.30;66.40
9393;DHT22;4736;52.508;13.422;2023-08-17T06:22:33;20.30;66.20
9393;DHT22;4736;52.508;13.422;2023-08-17T06:25:36;20.30;66.50
9393;DHT22;4736;52.508;13.422;2023-08-17T06:28:39;20.30;66.60
9393;DHT22;4736;52.508;13.422;2023-08-17T06:31:44;20.30;66.80
9393;DHT22;4736;52.508;13.422;2023-08-17T06:34:47;20.30;66.80
9393;DHT22;4736;52.508;13.422;2023-08-17T06:37:52;20.30;66.60
9393;DHT22;4736;52.508;13.422;2023-08-17T06:40:58;20.30;66.50
9393;DHT22;4736;52.508;13.422;2023-08-17T06:44:01;20.30;66.70
9393;DHT22;4736;52.508;13.422;2023-08-17T06:47:06;20.30;66.90
9393;DHT22;4736;52.508;13.422;2023-08-17T06:50:09;20.50;66.40
9393;DHT22;4736;52.508;13.422;2023-08-17T06:53:14;20.50;66.20
9393;DHT22;4736;52.508;13.422;2023-08-17T06:56:19;20.50;66.10
9393;DHT22;4736;52.508;13.422;2023-08-17T06:59:24;20.60;65.70
9393;DHT22;4736;52.508;13.422;2023-08-17T07:02:29;20.70;65.90
9393;DHT22;4736;52.508;13.422;2023-08-17T07:05:48;20.70;66.00
9393;DHT22;4736;52.508;13.422;2023-08-17T07:08:51;20.80;65.60
9393;DHT22;4736;52.508;13.422;2023-08-17T07:11:54;20.90;65.10
9393;DHT22;4736;52.508;13.422;2023-08-17T07:14:57;21.00;64.80
9393;DHT22;4736;52.508;13.422;2023-08-17T07:18:02;21.10;64.70
9393;DHT22;4736;52.508;13.422;2023-08-17T07:21:05;21.30;64.90
9393;DHT22;4736;52.508;13.422;2023-08-17T07:24:12;21.30;64.30
9393;DHT22;4736;52.508;13.422;2023-08-17T07:27:16;21.30;64.60
9393;DHT22;4736;52.508;13.422;2023-08-17T07:30:19;21.30;64.40
9393;DHT22;4736;52.508;13.422;2023-08-17T07:33:24;21.40;64.30
9393;DHT22;4736;52.508;13.422;2023-08-17T07:36:27;21.50;64.20
9393;DHT22;4736;52.508;13.422;2023-08-17T07:39:30;21.50;64.50
9393;DHT22;4736;52.508;13.422;2023-08-17T07:42:33;21.60;64.50
9393;DHT22;4736;52.508;13.422;2023-08-17T07:45:37;21.70;64.80
9393;DHT22;4736;52.508;13.422;2023-08-17T07:48:41;21.70;64.90
9393;DHT22;4736;52.508;13.422;2023-08-17T07:51:44;21.70;64.60
9393;DHT22;4736;52.508;13.422;2023-08-17T07:54:47;21.90;64.00
9393;DHT22;4736;52.508;13.422;2023-08-17T07:57:51;22.00;63.90
9393;DHT22;4736;52.508;13.422;2023-08-17T08:00:54;22.20;63.40
9393;DHT22;4736;52.508;13.422;2023-08-17T08:03:58;22.30;62.90
9393;DHT22;4736;52.508;13.422;2023-08-17T08:07:01;22.40;62.40
9393;DHT22;4736;52.508;13.422;2023-08-17T08:10:05;22.50;62.50
9393;DHT22;4736;52.508;13.422;2023-08-17T08:13:10;22.70;62.30
9393;DHT22;4736;52.508;13.422;2023-08-17T08:16:14;22.90;61.70
9393;DHT22;4736;52.508;13.422;2023-08-17T08:19:18;22.80;61.50
9393;DHT22;4736;52.508;13.422;2023-08-17T08:22:24;23.00;62.00
9393;DHT22;4736;52.508;13.422;2023-08-17T08:25:27;23.40;61.40
9393;DHT22;4736;52.508;13.422;2023-08-17T08:28:30;23.60;60.90
9393;DHT22;4736;52.508;13.422;2023-08-17T08:31:33;23.60;61.00
9393;DHT22;4736;52.508;13.422;2023-08-17T08:34:38;23.70;61.60
9393;DHT22;4736;52.508;13.422;2023-08-17T08:37:41;23.90;60.90
9393;DHT22;4736;52.508;13.422;2023-08-17T08:40:44;24.00;60.40
9393;DHT22;4736;52.508;13.422;2023-08-17T08:43:49;24.20;60.80
9393;DHT22;4736;52.508;13.422;2023-08-17T08:46:54;24.40;60.40
9393;DHT22;4736;52.508;13.422;2023-08-17T08:50:02;24.60;60.10
9393;DHT22;4736;52.508;13.422;2023-08-17T08:53:11;24.50;60.10
9393;DHT22;4736;52.508;13.422;2023-08-17T08:56:19;24.40;59.90
9393;DHT22;4736;52.508;13.422;2023-08-17T08:59:23;24.00;60.70
9393;DHT22;4736;52.508;13.422;2023-08-17T09:02:30;23.70;61.50
9393;DHT22;4736;52.508;13.422;2023-08-17T09:05:35;23.50;62.10
9393;DHT22;4736;52.508;13.422;2023-08-17T09:08:39;23.30;62.70
9393;DHT22;4736;52.508;13.422;2023-08-17T09:11:43;23.20;63.10
9393;DHT22;4736;52.508;13.422;2023-08-17T09:14:46;23.10;63.40
9393;DHT22;4736;52.508;13.422;2023-08-17T09:17:49;23.00;63.80
9393;DHT22;4736;52.508;13.422;2023-08-17T09:20:54;23.10;63.70
9393;DHT22;4736;52.508;13.422;2023-08-17T09:23:58;23.20;64.10
9393;DHT22;4736;52.508;13.422;2023-08-17T09:27:01;23.30;64.40
9393;DHT22;4736;52.508;13.422;2023-08-17T09:30:12;23.50;63.50
9393;DHT22;4736;52.508;13.422;2023-08-17T09:33:20;23.50;64.20
9393;DHT22;4736;52.508;13.422;2023-08-17T09:36:26;23.50;63.40
9393;DHT22;4736;52.508;13.422;2023-08-17T09:39:29;23.60;64.30
9393;DHT22;4736;52.508;13.422;2023-08-17T09:42:35;23.80;64.00
9393;DHT22;4736;52.508;13.422;2023-08-17T09:45:38;24.00;62.80
9393;DHT22;4736;52.508;13.422;2023-08-17T09:48:43;24.00;62.60
9393;DHT22;4736;52.508;13.422;2023-08-17T09:51:47;24.10;62.30
9393;DHT22;4736;52.508;13.422;2023-08-17T09:54:52;24.00;62.90
9393;DHT22;4736;52.508;13.422;2023-08-17T09:57:57;24.20;63.40
9393;DHT22;4736;52.508;13.422;2023-08-17T10:01:04;24.50;63.10
9393;DHT22;4736;52.508;13.422;2023-08-17T10:04:08;25.00;62.70
9393;DHT22;4736;52.508;13.422;2023-08-17T10:07:15;25.00;61.30
9393;DHT22;4736;52.508;13.422;2023-08-17T10:10:24;25.20;62.20
9393;DHT22;4736;52.508;13.422;2023-08-17T10:13:34;25.20;60.70
9393;DHT22;4736;52.508;13.422;2023-08-17T10:16:44;25.10;61.00
9393;DHT22;4736;52.508;13.422;2023-08-17T10:19:52;25.00;61.90
9393;DHT22;4736;52.508;13.422;2023-08-17T10:23:04;24.90;61.70
9393;DHT22;4736;52.508;13.422;2023-08-17T10:26:11;24.60;61.90
9393;DHT22;4736;52.508;13.422;2023-08-17T10:29:15;24.40;62.60
9393;DHT22;4736;52.508;13.422;2023-08-17T10:32:21;24.30;62.80
9393;DHT22;4736;52.508;13.422;2023-08-17T10:35:27;24.40;63.00
9393;DHT22;4736;52.508;13.422;2023-08-17T10:38:32;24.50;62.80
9393;DHT22;4736;52.508;13.422;2023-08-17T10:41:46;24.80;63.10
9393;DHT22;4736;52.508;13.422;2023-08-17T10:44:49;25.10;61.30
9393;DHT22;4736;52.508;13.422;2023-08-17T10:48:00;25.10;61.10
9393;DHT22;4736;52.508;13.422;2023-08-17T10:51:25;25.00;61.50
9393;DHT22;4736;52.508;13.422;2023-08-17T10:54:37;24.80;61.90
9393;DHT22;4736;52.508;13.422;2023-08-17T10:57:41;25.00;62.50
9393;DHT22;4736;52.508;13.422;2023-08-17T11:00:44;25.20;62.10
9393;DHT22;4736;52.508;13.422;2023-08-17T11:04:11;25.20;61.70
9393;DHT22;4736;52.508;13.422;2023-08-17T11:07:14;25.30;61.20
9393;DHT22;4736;52.508;13.422;2023-08-17T11:10:28;25.40;60.90
9393;DHT22;4736;52.508;13.422;2023-08-17T11:13:35;25.30;62.40
9393;DHT22;4736;52.508;13.422;2023-08-17T11:16:39;25.40;61.60
9393;DHT22;4736;52.508;13.422;2023-08-17T11:19:42;25.40;61.80
9393;DHT22;4736;52.508;13.422;2023-08-17T11:22:46;25.30;61.50
9393;DHT22;4736;52.508;13.422;2023-08-17T11:25:52;25.30;61.80
9393;DHT22;4736;52.508;13.422;2023-08-17T11:28:55;25.20;61.90
9393;DHT22;4736;52.508;13.422;2023-08-17T11:31:59;25.30;62.20
9393;DHT22;4736;52.508;13.422;2023-08-17T11:35:02;25.40;61.60
9393;DHT22;4736;52.508;13.422;2023-08-17T11:38:06;25.50;61.70
9393;DHT22;4736;52.508;13.422;2023-08-17T11:41:12;25.50;62.20
9393;DHT22;4736;52.508;13.422;2023-08-17T11:44:20;25.60;61.70
9393;DHT22;4736;52.508;13.422;2023-08-17T11:47:25;25.80;61.80
9393;DHT22;4736;52.508;13.422;2023-08-17T11:50:33;25.90;61.50
9393;DHT22;4736;52.508;13.422;2023-08-17T11:53:40;26.00;61.70
9393;DHT22;4736;52.508;13.422;2023-08-17T11:56:51;26.20;61.10
9393;DHT22;4736;52.508;13.422;2023-08-17T11:59:55;26.20;61.50
9393;DHT22;4736;52.508;13.422;2023-08-17T12:02:58;26.30;61.60
9393;DHT22;4736;52.508;13.422;2023-08-17T12:06:02;26.40;62.20
9393;DHT22;4736;52.508;13.422;2023-08-17T12:09:05;26.50;61.00
9393;DHT22;4736;52.508;13.422;2023-08-17T12:12:10;26.80;61.00
9393;DHT22;4736;52.508;13.422;2023-08-17T12:15:14;27.00;60.70
9393;DHT22;4736;52.508;13.422;2023-08-17T12:18:21;27.30;60.30
9393;DHT22;4736;52.508;13.422;2023-08-17T12:21:24;27.30;59.50
9393;DHT22;4736;52.508;13.422;2023-08-17T12:24:30;27.30;59.50
9393;DHT22;4736;52.508;13.422;2023-08-17T12:27:35;27.40;59.70
9393;DHT22;4736;52.508;13.422;2023-08-17T12:30:39;27.40;59.30
9393;DHT22;4736;52.508;13.422;2023-08-17T12:33:42;27.20;60.10
9393;DHT22;4736;52.508;13.422;2023-08-17T12:36:45;27.20;60.50
9393;DHT22;4736;52.508;13.422;2023-08-17T12:39:48;27.10;60.10
9393;DHT22;4736;52.508;13.422;2023-08-17T12:42:53;26.90;60.70
9393;DHT22;4736;52.508;13.422;2023-08-17T12:45:56;27.20;60.90
9393;DHT22;4736;52.508;13.422;2023-08-17T12:48:59;27.50;60.60
9393;DHT22;4736;52.508;13.422;2023-08-17T12:52:03;28.00;59.70
9393;DHT22;4736;52.508;13.422;2023-08-17T12:55:07;28.30;58.60
9393;DHT22;4736;52.508;13.422;2023-08-17T12:58:11;28.30;58.00
9393;DHT22;4736;52.508;13.422;2023-08-17T13:01:15;28.40;57.90
9393;DHT22;4736;52.508;13.422;2023-08-17T13:04:18;28.30;58.20
9393;DHT22;4736;52.508;13.422;2023-08-17T13:07:21;28.30;58.20
9393;DHT22;4736;52.508;13.422;2023-08-17T13:10:24;28.20;58.00
9393;DHT22;4736;52.508;13.422;2023-08-17T13:13:29;28.10;57.90
9393;DHT22;4736;52.508;13.422;2023-08-17T13:16:32;27.80;58.50
9393;DHT22;4736;52.508;13.422;2023-08-17T13:19:35;27.70;59.00
9393;DHT22;4736;52.508;13.422;2023-08-17T13:22:38;27.70;58.50
9393;DHT22;4736;52.508;13.422;2023-08-17T13:25:41;27.70;58.80
9393;DHT22;4736;52.508;13.422;2023-08-17T13:28:46;27.60;59.00
9393;DHT22;4736;52.508;13.422;2023-08-17T13:31:49;27.50;59.40
9393;DHT22;4736;52.508;13.422;2023-08-17T13:34:52;27.60;59.40
9393;DHT22;4736;52.508;13.422;2023-08-17T13:37:55;27.60;59.00
9393;DHT22;4736;52.508;13.422;2023-08-17T13:40:59;27.70;59.30
9393;DHT22;4736;52.508;13.422;2023-08-17T13:44:04;27.60;59.30
9393;DHT22;4736;52.508;13.422;2023-08-17T13:47:07;27.50;59.80
9393;DHT22;4736;52.508;13.422;2023-08-17T13:50:11;27.70;58.70
9393;DHT22;4736;52.508;13.422;2023-08-17T13:53:14;27.80;58.80
9393;DHT22;4736;52.508;13.422;2023-08-17T13:56:18;27.90;58.90
9393;DHT22;4736;52.508;13.422;2023-08-17T13:59:22;27.90;58.70
9393;DHT22;4736;52.508;13.422;2023-08-17T14:02:25;27.90;58.90
9393;DHT22;4736;52.508;13.422;2023-08-17T14:05:32;27.80;59.10
9393;DHT22;4736;52.508;13.422;2023-08-17T14:08:35;27.60;58.90
9393;DHT22;4736;52.508;13.422;2023-08-17T14:11:38;27.80;58.90
9393;DHT22;4736;52.508;13.422;2023-08-17T14:14:43;28.00;58.60
9393;DHT22;4736;52.508;13.422;2023-08-17T14:17:46;28.00;59.00
9393;DHT22;4736;52.508;13.422;2023-08-17T14:20:49;28.10;58.80
9393;DHT22;4736;52.508;13.422;2023-08-17T14:23:52;28.10;58.70
9393;DHT22;4736;52.508;13.422;2023-08-17T14:26:55;28.10;58.30
9393;DHT22;4736;52.508;13.422;2023-08-17T14:30:01;28.10;58.70
9393;DHT22;4736;52.508;13.422;2023-08-17T14:33:05;28.10;58.80
9393;DHT22;4736;52.508;13.422;2023-08-17T14:36:08;28.20;58.30
9393;DHT22;4736;52.508;13.422;2023-08-17T14:39:12;28.20;57.50
9393;DHT22;4736;52.508;13.422;2023-08-17T14:42:15;28.30;57.70
9393;DHT22;4736;52.508;13.422;2023-08-17T14:45:19;28.60;57.30
9393;DHT22;4736;52.508;13.422;2023-08-17T14:48:22;28.60;58.00
9393;DHT22;4736;52.508;13.422;2023-08-17T14:51:28;28.70;57.80
9393;DHT22;4736;52.508;13.422;2023-08-17T14:54:33;28.70;57.00
9393;DHT22;4736;52.508;13.422;2023-08-17T14:57:36;28.60;57.20
9393;DHT22;4736;52.508;13.422;2023-08-17T15:00:40;28.50;58.00
9393;DHT22;4736;52.508;13.422;2023-08-17T15:03:43;28.30;57.70
9393;DHT22;4736;52.508;13.422;2023-08-17T15:06:48;28.10;58.50
9393;DHT22;4736;52.508;13.422;2023-08-17T15:09:51;28.20;58.50
9393;DHT22;4736;52.508;13.422;2023-08-17T15:12:55;28.30;58.30
9393;DHT22;4736;52.508;13.422;2023-08-17T15:15:59;28.30;58.20
9393;DHT22;4736;52.508;13.422;2023-08-17T15:19:03;28.10;58.40
9393;DHT22;4736;52.508;13.422;2023-08-17T15:22:09;28.00;58.60
9393;DHT22;4736;52.508;13.422;2023-08-17T15:25:15;28.00;58.90
9393;DHT22;4736;52.508;13.422;2023-08-17T15:28:18;28.10;58.70
9393;DHT22;4736;52.508;13.422;2023-08-17T15:31:23;28.20;57.90
9393;DHT22;4736;52.508;13.422;2023-08-17T15:34:27;28.10;58.20
9393;DHT22;4736;52.508;13.422;2023-08-17T15:37:30;28.00;58.30
9393;DHT22;4736;52.508;13.422;2023-08-17T15:40:33;27.90;59.00
9393;DHT22;4736;52.508;13.422;2023-08-17T15:43:36;27.90;59.00
9393;DHT22;4736;52.508;13.422;2023-08-17T15:46:41;27.80;59.00
9393;DHT22;4736;52.508;13.422;2023-08-17T15:49:45;27.70;58.80
9393;DHT22;4736;52.508;13.422;2023-08-17T15:52:48;27.50;59.20
9393;DHT22;4736;52.508;13.422;2023-08-17T15:55:51;27.40;59.40
9393;DHT22;4736;52.508;13.422;2023-08-17T15:58:55;27.20;59.70
9393;DHT22;4736;52.508;13.422;2023-08-17T16:02:13;27.10;59.70
9393;DHT22;4736;52.508;13.422;2023-08-17T16:05:16;27.00;59.90
9393;DHT22;4736;52.508;13.422;2023-08-17T16:08:19;26.90;60.10
9393;DHT22;4736;52.508;13.422;2023-08-17T16:11:34;26.80;60.50
9393;DHT22;4736;52.508;13.422;2023-08-17T16:14:38;26.80;60.20
9393;DHT22;4736;52.508;13.422;2023-08-17T16:17:43;26.60;60.20
9393;DHT22;4736;52.508;13.422;2023-08-17T16:20:46;26.60;60.50
9393;DHT22;4736;52.508;13.422;2023-08-17T16:23:49;26.60;60.50
9393;DHT22;4736;52.508;13.422;2023-08-17T16:26:53;26.60;60.70
9393;DHT22;4736;52.508;13.422;2023-08-17T16:29:56;26.60;60.40
9393;DHT22;4736;52.508;13.422;2023-08-17T16:33:01;26.50;60.40
9393;DHT22;4736;52.508;13.422;2023-08-17T16:36:04;26.40;60.60
9393;DHT22;4736;52.508;13.422;2023-08-17T16:39:07;26.40;60.70
9393;DHT22;4736;52.508;13.422;2023-08-17T16:42:11;26.30;60.90
9393;DHT22;4736;52.508;13.422;2023-08-17T16:45:14;26.20;61.30
9393;DHT22;4736;52.508;13.422;2023-08-17T16:48:21;26.20;61.00
9393;DHT22;4736;52.508;13.422;2023-08-17T16:51:26;26.10;61.00
9393;DHT22;4736;52.508;13.422;2023-08-17T16:54:29;26.10;61.30
9393;DHT22;4736;52.508;13.422;2023-08-17T16:57:32;26.00;61.70
9393;DHT22;4736;52.508;13.422;2023-08-17T17:00:36;26.00;61.80
9393;DHT22;4736;52.508;13.422;2023-08-17T17:03:41;25.90;61.90
9393;DHT22;4736;52.508;13.422;2023-08-17T17:06:44;25.80;62.20
9393;DHT22;4736;52.508;13.422;2023-08-17T17:09:47;25.80;62.30
9393;DHT22;4736;52.508;13.422;2023-08-17T17:12:50;25.80;62.50
9393;DHT22;4736;52.508;13.422;2023-08-17T17:15:54;25.80;62.70
9393;DHT22;4736;52.508;13.422;2023-08-17T17:18:58;25.80;63.00
9393;DHT22;4736;52.508;13.422;2023-08-17T17:22:01;25.80;63.00
9393;DHT22;4736;52.508;13.422;2023-08-17T17:25:05;25.80;63.10
9393;DHT22;4736;52.508;13.422;2023-08-17T17:28:08;25.80;63.30
9393;DHT22;4736;52.508;13.422;2023-08-17T17:31:12;25.70;63.20
9393;DHT22;4736;52.508;13.422;2023-08-17T17:34:16;25.60;63.40
9393;DHT22;4736;52.508;13.422;2023-08-17T17:37:21;25.60;63.50
9393;DHT22;4736;52.508;13.422;2023-08-17T17:40:24;25.50;63.50
9393;DHT22;4736;52.508;13.422;2023-08-17T17:43:28;25.50;63.50
9393;DHT22;4736;52.508;13.422;2023-08-17T17:46:31;25.40;63.50
9393;DHT22;4736;52.508;13.422;2023-08-17T17:49:36;25.40;63.60
9393;DHT22;4736;52.508;13.422;2023-08-17T17:52:40;25.30;63.60
9393;DHT22;4736;52.508;13.422;2023-08-17T17:55:45;25.30;63.60
9393;DHT22;4736;52.508;13.422;2023-08-17T17:58:48;25.20;63.80
9393;DHT22;4736;52.508;13.422;2023-08-17T18:01:52;25.20;64.40
9393;DHT22;4736;52.508;13.422;2023-08-17T18:04:56;25.20;64.30
9393;DHT22;4736;52.508;13.422;2023-08-17T18:07:59;25.10;64.10
9393;DHT22;4736;52.508;13.422;2023-08-17T18:11:04;25.10;64.30
9393;DHT22;4736;52.508;13.422;2023-08-17T18:14:07;25.00;64.40
9393;DHT22;4736;52.508;13.422;2023-08-17T18:17:10;25.00;64.70
9393;DHT22;4736;52.508;13.422;2023-08-17T18:20:15;25.00;64.70
9393;DHT22;4736;52.508;13.422;2023-08-17T18:23:20;24.90;65.00
9393;DHT22;4736;52.508;13.422;2023-08-17T18:26:23;24.80;65.00
9393;DHT22;4736;52.508;13.422;2023-08-17T18:29:26;24.80;65.20
9393;DHT22;4736;52.508;13.422;2023-08-17T18:32:30;24.80;65.40
9393;DHT22;4736;52.508;13.422;2023-08-17T18:35:35;24.70;65.50
9393;DHT22;4736;52.508;13.422;2023-08-17T18:38:38;24.70;65.50
9393;DHT22;4736;52.508;13.422;2023-08-17T18:41:41;24.70;65.50
9393;DHT22;4736;52.508;13.422;2023-08-17T18:44:50;24.60;65.30
9393;DHT22;4736;52.508;13.422;2023-08-17T18:47:56;24.50;65.40
9393;DHT22;4736;52.508;13.422;2023-08-17T18:51:01;24.40;65.40
9393;DHT22;4736;52.508;13.422;2023-08-17T18:54:05;24.40;65.00
9393;DHT22;4736;52.508;13.422;2023-08-17T18:57:11;24.40;64.70
9393;DHT22;4736;52.508;13.422;2023-08-17T19:00:14;24.30;64.60
9393;DHT22;4736;52.508;13.422;2023-08-17T19:03:18;24.20;64.60
9393;DHT22;4736;52.508;13.422;2023-08-17T19:06:22;24.00;64.70
9393;DHT22;4736;52.508;13.422;2023-08-17T19:09:26;24.00;64.80
9393;DHT22;4736;52.508;13.422;2023-08-17T19:12:29;23.90;64.90
9393;DHT22;4736;52.508;13.422;2023-08-17T19:15:32;23.90;64.80
9393;DHT22;4736;52.508;13.422;2023-08-17T19:18:35;23.70;65.10
9393;DHT22;4736;52.508;13.422;2023-08-17T19:21:41;23.60;65.20
9393;DHT22;4736;52.508;13.422;2023-08-17T19:24:44;23.60;65.40
9393;DHT22;4736;52.508;13.422;2023-08-17T19:27:48;23.50;65.40
9393;DHT22;4736;52.508;13.422;2023-08-17T19:30:51;23.40;65.60
9393;DHT22;4736;52.508;13.422;2023-08-17T19:33:54;23.40;65.30
9393;DHT22;4736;52.508;13.422;2023-08-17T19:36:58;23.40;65.30
9393;DHT22;4736;52.508;13.422;2023-08-17T19:40:03;23.30;65.50
9393;DHT22;4736;52.508;13.422;2023-08-17T19:43:06;23.30;65.60